Time;durP1;ratioP1;P1;durP2;ratioP2;P2;SDS_P1;SDS_P2;PMS_P1;PMS_P2;Temp;Humidity;BMP_temperature;BMP_pressure;BME280_temperature;BME280_humidity;BME280_pressure;Samples;Min_cycle;Max_cycle;Signal;HPM_P1;HPM_P2
2022/09/01 00:02:26;;;;;;;3.10;1.43;;;13.70;99.90;;;;;;4384915;28;659273;-69
2022/09/01 00:05:15;;;;;;;2.63;1.30;;;13.70;99.90;;;;;;4384458;28;657560;-69
2022/09/01 00:08:02;;;;;;;3.20;1.50;;;13.70;99.90;;;;;;4384402;28;657235;-69
2022/09/01 00:10:49;;;;;;;12.77;2.07;;;13.60;99.90;;;;;;4399176;28;656948;-69
2022/09/01 00:13:36;;;;;;;3.47;1.40;;;13.60;99.90;;;;;;4382689;28;657873;-68
2022/09/01 00:16:24;;;;;;;4.37;1.43;;;13.50;99.90;;;;;;4397832;28;656793;-69
2022/09/01 00:19:11;;;;;;;3.10;1.80;;;13.50;99.90;;;;;;4384099;28;656355;-69
2022/09/01 00:21:59;;;;;;;2.60;1.20;;;13.50;99.90;;;;;;4409974;28;657091;-69
2022/09/01 00:24:47;;;;;;;2.43;1.60;;;13.40;99.90;;;;;;4393105;28;656342;-67
2022/09/01 00:27:34;;;;;;;3.60;1.50;;;13.40;99.90;;;;;;4405856;28;657178;-69
2022/09/01 00:30:21;;;;;;;2.07;1.40;;;13.40;99.90;;;;;;4389327;28;656472;-69
2022/09/01 00:33:08;;;;;;;2.80;1.20;;;13.40;99.90;;;;;;4409615;28;657184;-69
2022/09/01 00:35:55;;;;;;;7.00;1.47;;;13.40;99.90;;;;;;4389277;28;656782;-67
2022/09/01 00:38:44;;;;;;;2.27;1.13;;;13.30;99.90;;;;;;4413810;28;656753;-69
2022/09/01 00:41:32;;;;;;;2.03;1.10;;;13.30;99.90;;;;;;4390558;28;656405;-69
2022/09/01 00:44:22;;;;;;;2.60;1.30;;;13.30;99.90;;;;;;4412764;28;656183;-69
2022/09/01 00:47:09;;;;;;;2.40;1.20;;;13.40;99.90;;;;;;4385350;28;656825;-69
2022/09/01 00:49:56;;;;;;;4.03;1.20;;;13.30;99.90;;;;;;4385626;28;656917;-69
2022/09/01 00:52:46;;;;;;;3.80;1.20;;;13.30;99.90;;;;;;4407779;28;656510;-69
2022/09/01 00:55:35;;;;;;;2.47;1.30;;;13.30;99.90;;;;;;4381129;28;657195;-69
2022/09/01 00:58:22;;;;;;;3.87;1.10;;;13.30;99.90;;;;;;4389704;28;658612;-69
2022/09/01 01:01:10;;;;;;;2.17;1.00;;;13.40;99.90;;;;;;4406547;28;658246;-69
2022/09/01 01:04:01;;;;;;;2.33;1.00;;;13.40;99.90;;;;;;4384989;28;657886;-69
2022/09/01 01:06:57;;;;;;;2.77;0.90;;;13.30;99.90;;;;;;4382870;28;656658;-69
2022/09/01 01:09:44;;;;;;;2.50;0.90;;;13.40;99.90;;;;;;4384458;28;656699;-69
2022/09/01 01:12:34;;;;;;;3.27;0.90;;;13.50;99.90;;;;;;4381365;28;658298;-69
2022/09/01 01:15:21;;;;;;;0.83;0.70;;;13.50;99.90;;;;;;4389867;28;656712;-69
2022/09/01 01:18:08;;;;;;;2.07;0.90;;;13.50;99.90;;;;;;4410743;28;657149;-69
2022/09/01 01:24:12;;;;;;;3.27;1.10;;;13.50;99.90;;;;;;4379643;28;657098;-68
2022/09/01 01:27:02;;;;;;;5.60;1.13;;;13.50;99.90;;;;;;4384608;28;656491;-69
2022/09/01 01:29:52;;;;;;;2.07;1.20;;;13.60;99.90;;;;;;4391005;28;656538;-69
2022/09/01 01:32:42;;;;;;;3.07;1.20;;;13.60;99.90;;;;;;4386407;28;657143;-69
2022/09/01 01:35:30;;;;;;;4.20;1.30;;;13.40;99.90;;;;;;4388373;28;656715;-69
2022/09/01 01:38:19;;;;;;;3.67;1.70;;;13.20;99.90;;;;;;4390003;28;656573;-69
2022/09/01 01:41:06;;;;;;;8.40;1.90;;;13.20;99.90;;;;;;4391552;28;657764;-69
2022/09/01 01:43:55;;;;;;;3.90;1.90;;;13.00;99.90;;;;;;4412028;28;657494;-69
2022/09/01 01:46:44;;;;;;;5.27;1.60;;;12.90;99.90;;;;;;4384671;28;657473;-68
2022/09/01 01:49:32;;;;;;;6.57;1.90;;;12.80;99.90;;;;;;4393481;28;656874;-69
2022/09/01 01:52:20;;;;;;;3.37;1.60;;;12.70;99.90;;;;;;4415030;28;656598;-69
2022/09/01 01:55:11;;;;;;;2.77;1.77;;;12.70;99.90;;;;;;4387844;28;658025;-69
2022/09/01 01:57:58;;;;;;;3.53;1.40;;;12.60;99.90;;;;;;4383965;28;657696;-69
2022/09/01 02:00:47;;;;;;;5.17;1.60;;;12.70;99.90;;;;;;4390337;28;656732;-68
2022/09/01 02:03:37;;;;;;;2.93;1.73;;;12.70;99.90;;;;;;4414375;28;656633;-70
2022/09/01 02:06:24;;;;;;;5.23;1.97;;;12.60;99.90;;;;;;4385979;28;656415;-69
2022/09/01 02:09:12;;;;;;;5.10;2.00;;;12.50;99.90;;;;;;4391619;28;656152;-69
2022/09/01 02:11:59;;;;;;;5.23;1.73;;;12.50;99.90;;;;;;4408168;28;656721;-69
2022/09/01 02:14:47;;;;;;;3.88;1.83;;;12.50;99.90;;;;;;4385970;28;656453;-69
2022/09/01 02:17:38;;;;;;;2.47;1.50;;;12.50;99.90;;;;;;4407488;28;657270;-69
2022/09/01 02:20:27;;;;;;;4.53;2.10;;;12.40;99.90;;;;;;4371214;28;656669;-69
2022/09/01 02:23:18;;;;;;;3.17;1.90;;;12.40;99.90;;;;;;4413080;28;656721;-67
2022/09/01 02:26:07;;;;;;;2.93;1.50;;;12.40;99.90;;;;;;4387278;28;656480;-69
2022/09/01 02:28:54;;;;;;;3.92;1.83;;;12.40;99.90;;;;;;4409754;28;656735;-69
2022/09/01 02:31:41;;;;;;;3.83;2.17;;;12.30;99.90;;;;;;4388846;28;656643;-68
2022/09/01 02:34:30;;;;;;;4.90;2.10;;;12.30;99.90;;;;;;4406166;28;657341;-69
2022/09/01 02:37:19;;;;;;;14.80;2.03;;;12.30;99.90;;;;;;4387222;28;656690;-68
2022/09/01 02:40:10;;;;;;;4.67;1.77;;;12.30;99.90;;;;;;4389426;28;657774;-67
2022/09/01 02:42:57;;;;;;;5.53;1.80;;;12.30;99.90;;;;;;4392546;28;656999;-71
2022/09/01 02:45:45;;;;;;;3.57;2.10;;;12.30;99.90;;;;;;4411021;28;657090;-71
2022/09/01 02:48:36;;;;;;;5.67;2.10;;;12.20;99.90;;;;;;4383289;28;657179;-71
2022/09/01 02:51:25;;;;;;;5.70;1.80;;;12.10;99.90;;;;;;4386858;28;657006;-69
2022/09/01 02:54:18;;;;;;;4.10;1.80;;;12.10;99.90;;;;;;4386418;28;657531;-69
2022/09/01 02:57:07;;;;;;;3.13;1.67;;;12.10;99.90;;;;;;4378580;28;656681;-67
2022/09/01 02:59:57;;;;;;;7.13;1.60;;;12.10;99.90;;;;;;4409012;28;656712;-66
2022/09/01 03:02:44;;;;;;;4.47;1.50;;;12.00;99.90;;;;;;4405951;28;657153;-69
2022/09/01 03:05:33;;;;;;;6.63;1.90;;;12.00;99.90;;;;;;4388172;28;656970;-69
2022/09/01 03:08:22;;;;;;;6.73;1.80;;;11.90;99.90;;;;;;4391731;28;656497;-66
2022/09/01 03:11:10;;;;;;;5.00;1.83;;;11.90;99.90;;;;;;4407650;28;656833;-69
2022/09/01 03:13:57;;;;;;;4.23;1.63;;;11.80;99.90;;;;;;4384380;28;656601;-69
2022/09/01 03:16:44;;;;;;;5.83;1.60;;;11.80;99.90;;;;;;4418043;28;657723;-69
2022/09/01 03:19:40;;;;;;;6.90;1.90;;;11.80;99.90;;;;;;4392463;28;656811;-69
2022/09/01 03:22:28;;;;;;;4.17;1.80;;;11.70;99.90;;;;;;4364267;28;656380;-69
2022/09/01 03:25:17;;;;;;;6.97;1.53;;;11.70;99.90;;;;;;4389051;28;656309;-68
2022/09/01 03:28:04;;;;;;;3.03;1.50;;;11.60;99.90;;;;;;4409170;28;656736;-69
2022/09/01 03:30:55;;;;;;;3.27;1.80;;;11.50;99.90;;;;;;4388564;28;656248;-69
2022/09/01 03:33:43;;;;;;;2.57;1.60;;;11.30;99.90;;;;;;4384341;28;657508;-68
2022/09/01 03:36:32;;;;;;;3.27;1.90;;;11.20;99.90;;;;;;4398089;28;656444;-67
2022/09/01 03:39:19;;;;;;;6.23;1.60;;;11.20;99.90;;;;;;4414083;28;656179;-69
2022/09/01 03:42:11;;;;;;;4.13;1.63;;;11.20;99.90;;;;;;4389391;28;656652;-68
2022/09/01 03:44:58;;;;;;;4.27;1.63;;;11.10;99.90;;;;;;4382956;28;657709;-68
2022/09/01 03:47:45;;;;;;;3.33;1.60;;;11.10;99.90;;;;;;4394844;28;656793;-66
2022/09/01 03:50:33;;;;;;;3.90;1.50;;;11.00;99.90;;;;;;4415391;28;656312;-69
2022/09/01 03:53:21;;;;;;;5.80;1.50;;;11.10;99.90;;;;;;4394368;28;656805;-67
2022/09/01 03:56:10;;;;;;;3.03;1.57;;;11.20;99.90;;;;;;4410103;28;657870;-69
2022/09/01 03:58:59;;;;;;;3.50;1.70;;;11.20;99.90;;;;;;4383884;28;657114;-68
2022/09/01 04:01:46;;;;;;;8.93;1.80;;;11.10;99.90;;;;;;4389299;28;657055;-69
2022/09/01 04:04:33;;;;;;;5.00;2.10;;;11.00;99.90;;;;;;4412706;28;657033;-69
2022/09/01 04:07:20;;;;;;;4.10;1.70;;;10.90;99.90;;;;;;4389295;28;656849;-67
2022/09/01 04:10:10;;;;;;;4.17;1.63;;;10.90;99.90;;;;;;4413050;28;657960;-68
2022/09/01 04:12:58;;;;;;;5.30;1.70;;;10.80;99.90;;;;;;4381919;28;656713;-69
2022/09/01 04:15:47;;;;;;;3.77;1.60;;;10.90;99.90;;;;;;4390108;28;656820;-67
2022/09/01 04:18:33;;;;;;;3.47;1.60;;;10.90;99.90;;;;;;4414556;28;655936;-69
2022/09/01 04:21:20;;;;;;;2.93;1.60;;;11.00;99.90;;;;;;4393192;28;656957;-67
2022/09/01 04:24:08;;;;;;;3.03;1.67;;;11.10;99.90;;;;;;4412937;28;657910;-69
2022/09/01 04:26:57;;;;;;;2.63;1.73;;;11.10;99.90;;;;;;4392996;28;656626;-66
2022/09/01 04:29:45;;;;;;;3.10;1.70;;;11.20;99.90;;;;;;4404388;28;656814;-69
2022/09/01 04:32:34;;;;;;;3.80;1.50;;;11.30;99.90;;;;;;4392352;28;656900;-69
2022/09/01 04:35:26;;;;;;;5.90;1.77;;;11.40;99.90;;;;;;4386245;28;656449;-69
2022/09/01 04:38:14;;;;;;;5.73;1.70;;;11.50;99.90;;;;;;4379829;28;656256;-69
2022/09/01 04:41:05;;;;;;;4.33;1.97;;;11.60;99.90;;;;;;4387807;28;657234;-68
2022/09/01 04:43:55;;;;;;;4.17;1.97;;;11.70;99.90;;;;;;4383807;28;658072;-69
2022/09/01 04:46:45;;;;;;;3.63;1.83;;;11.80;99.90;;;;;;4383975;28;657857;-69
2022/09/01 04:49:33;;;;;;;4.80;1.90;;;12.00;99.90;;;;;;4386117;28;658307;-69
2022/09/01 04:52:20;;;;;;;4.40;1.60;;;12.10;99.90;;;;;;4388737;28;656973;-68
2022/09/01 04:55:16;;;;;;;2.90;1.60;;;12.20;99.90;;;;;;4407098;28;657394;-69
2022/09/01 04:58:04;;;;;;;3.47;1.77;;;12.40;99.90;;;;;;4384578;28;657218;-69
2022/09/01 05:00:51;;;;;;;6.63;1.50;;;12.60;99.90;;;;;;4385690;28;656328;-69
2022/09/01 05:03:38;;;;;;;3.73;1.70;;;12.80;99.90;;;;;;4410089;28;657826;-69
2022/09/01 05:06:28;;;;;;;2.67;1.57;;;12.90;99.90;;;;;;4390866;28;656319;-69
2022/09/01 05:09:16;;;;;;;4.77;1.57;;;13.00;99.90;;;;;;4399085;28;656287;-67
2022/09/01 05:12:09;;;;;;;2.57;1.20;;;13.10;99.90;;;;;;4410642;28;656482;-69
2022/09/01 05:14:57;;;;;;;4.97;1.50;;;13.10;99.90;;;;;;4388672;28;657052;-69
2022/09/01 05:17:44;;;;;;;6.33;1.77;;;13.20;99.90;;;;;;4403859;28;656064;-69
2022/09/01 05:20:31;;;;;;;3.73;1.80;;;13.30;99.90;;;;;;4387965;28;657441;-69
2022/09/01 05:23:19;;;;;;;2.20;1.47;;;13.30;99.90;;;;;;4406638;28;657173;-69
2022/09/01 05:26:15;;;;;;;4.83;1.40;;;13.40;99.90;;;;;;4388110;28;657436;-69
2022/09/01 05:29:09;;;;;;;5.67;1.43;;;13.50;99.90;;;;;;4360456;28;657034;-67
2022/09/01 05:31:57;;;;;;;3.80;1.53;;;13.60;99.90;;;;;;4359385;28;657470;-68
2022/09/01 05:34:44;;;;;;;2.70;1.30;;;13.70;99.90;;;;;;4403607;28;656945;-69
2022/09/01 05:37:32;;;;;;;3.30;1.30;;;13.80;99.90;;;;;;4387923;28;657308;-69
2022/09/01 05:40:22;;;;;;;3.73;1.30;;;13.90;99.90;;;;;;4406357;28;656424;-69
2022/09/01 05:43:11;;;;;;;2.13;1.20;;;14.00;99.90;;;;;;4383703;28;656152;-69
2022/09/01 05:45:59;;;;;;;3.03;1.10;;;14.10;99.90;;;;;;4381213;28;656501;-69
2022/09/01 05:48:48;;;;;;;3.00;1.37;;;14.30;99.90;;;;;;4385323;28;657417;-70
2022/09/01 05:51:36;;;;;;;6.10;1.37;;;14.40;99.90;;;;;;4384555;28;660356;-67
2022/09/01 05:54:26;;;;;;;3.07;1.10;;;14.50;99.90;;;;;;4409498;28;658169;-69
2022/09/01 05:57:14;;;;;;;2.93;1.10;;;14.50;99.90;;;;;;4387077;28;657801;-70
2022/09/01 06:00:02;;;;;;;4.90;1.30;;;14.60;99.90;;;;;;4386846;28;656500;-70
2022/09/01 06:02:50;;;;;;;4.47;1.27;;;14.60;99.90;;;;;;4413081;28;657122;-70
2022/09/01 06:05:38;;;;;;;4.53;1.13;;;14.70;99.90;;;;;;4384341;28;656339;-70
2022/09/01 06:08:27;;;;;;;3.63;1.43;;;14.70;99.90;;;;;;4392553;28;656782;-69
2022/09/01 06:11:16;;;;;;;3.30;1.33;;;14.80;99.90;;;;;;4408209;28;657209;-67
2022/09/01 06:14:05;;;;;;;1.33;1.00;;;14.90;99.90;;;;;;4413835;28;657023;-68
2022/09/01 06:16:53;;;;;;;1.60;1.00;;;15.00;99.90;;;;;;4391896;28;657776;-70
2022/09/01 06:19:41;;;;;;;2.20;1.00;;;15.10;99.90;;;;;;4400996;28;656847;-67
2022/09/01 06:22:28;;;;;;;2.17;1.03;;;15.30;99.90;;;;;;4409378;28;657303;-69
2022/09/01 06:25:17;;;;;;;5.83;1.20;;;15.40;99.90;;;;;;4389661;28;656473;-69
2022/09/01 06:28:04;;;;;;;2.07;1.10;;;15.50;99.90;;;;;;4407839;28;657100;-69
2022/09/01 06:30:53;;;;;;;3.87;1.10;;;15.60;99.90;;;;;;4390134;28;656745;-69
2022/09/01 06:33:41;;;;;;;2.80;1.27;;;15.70;99.90;;;;;;4386345;28;656072;-68
2022/09/01 06:36:31;;;;;;;2.63;1.37;;;15.80;99.90;;;;;;4409038;28;656342;-70
2022/09/01 06:39:19;;;;;;;3.33;1.30;;;15.90;99.90;;;;;;4385396;28;656983;-70
2022/09/01 06:42:08;;;;;;;2.30;1.20;;;16.00;99.90;;;;;;4388299;28;656544;-69
2022/09/01 06:44:55;;;;;;;6.30;1.20;;;16.10;99.90;;;;;;4388964;28;656621;-67
2022/09/01 06:47:46;;;;;;;3.60;1.27;;;16.20;99.90;;;;;;4409268;28;657483;-70
2022/09/01 06:50:33;;;;;;;2.00;1.00;;;16.50;99.90;;;;;;4386482;28;658508;-69
2022/09/01 06:53:20;;;;;;;1.73;0.77;;;16.50;99.90;;;;;;4393225;28;656686;-67
2022/09/01 06:56:08;;;;;;;1.77;1.07;;;16.50;99.90;;;;;;4411367;28;656413;-68
2022/09/01 06:58:56;;;;;;;4.13;0.93;;;16.70;99.90;;;;;;4385589;28;656577;-70
2022/09/01 07:01:43;;;;;;;1.13;0.90;;;16.90;99.90;;;;;;4411913;28;657199;-69
2022/09/01 07:04:32;;;;;;;1.10;0.80;;;17.00;99.90;;;;;;4391164;28;657016;-68
2022/09/01 07:07:19;;;;;;;4.10;1.00;;;17.10;99.90;;;;;;4409807;28;657732;-70
2022/09/01 07:10:06;;;;;;;2.97;0.90;;;17.20;99.90;;;;;;4388192;28;656853;-69
2022/09/01 07:12:54;;;;;;;2.70;0.80;;;17.30;99.90;;;;;;4409782;28;656721;-68
2022/09/01 07:15:42;;;;;;;3.30;0.90;;;17.40;99.90;;;;;;4391671;28;656548;-69
2022/09/01 07:18:29;;;;;;;0.73;0.70;;;17.50;99.90;;;;;;4406520;28;656111;-69
2022/09/01 07:21:18;;;;;;;1.47;0.70;;;17.50;99.90;;;;;;4390575;28;657334;-69
2022/09/01 07:24:05;;;;;;;2.13;0.70;;;17.60;99.90;;;;;;4390568;28;656402;-66
2022/09/01 07:26:52;;;;;;;7.57;0.90;;;17.70;99.90;;;;;;4408946;28;657226;-69
2022/09/01 07:29:40;;;;;;;1.87;0.80;;;17.80;99.90;;;;;;4408598;28;656371;-68
2022/09/01 07:32:29;;;;;;;1.27;0.50;;;18.00;99.90;;;;;;4414344;28;656553;-70
2022/09/01 07:35:18;;;;;;;2.23;0.90;;;18.20;99.90;;;;;;4385187;28;657722;-69
2022/09/01 07:38:07;;;;;;;1.43;0.70;;;18.40;99.90;;;;;;4388663;28;656585;-69
2022/09/01 07:40:54;;;;;;;1.17;0.70;;;18.60;99.90;;;;;;4407555;28;656420;-70
2022/09/01 07:43:43;;;;;;;2.03;0.68;;;18.70;99.90;;;;;;4381536;28;657109;-69
2022/09/01 07:46:31;;;;;;;1.70;0.80;;;18.70;99.90;;;;;;4388594;28;657237;-67
2022/09/01 07:49:19;;;;;;;3.00;0.90;;;18.70;99.90;;;;;;4407535;28;656846;-68
2022/09/01 07:52:06;;;;;;;0.50;0.50;;;19.00;99.90;;;;;;4386173;28;658294;-69
2022/09/01 07:54:55;;;;;;;0.50;0.40;;;19.20;99.60;;;;;;4406073;28;656463;-70
2022/09/01 07:57:44;;;;;;;1.10;0.43;;;19.20;98.60;;;;;;4383344;28;658253;-69
2022/09/01 08:00:33;;;;;;;1.00;0.57;;;19.40;93.10;;;;;;4389578;28;656502;-70
2022/09/01 08:03:21;;;;;;;1.60;0.50;;;19.60;93.60;;;;;;4398428;28;657026;-67
2022/09/01 08:06:10;;;;;;;2.80;0.70;;;19.70;92.70;;;;;;4409540;28;656996;-69
2022/09/01 08:08:58;;;;;;;1.50;0.50;;;20.00;93.20;;;;;;4390765;28;657383;-69
2022/09/01 08:11:47;;;;;;;1.50;0.60;;;20.20;94.40;;;;;;4389176;28;657626;-68
2022/09/01 08:14:34;;;;;;;2.00;0.57;;;20.50;94.10;;;;;;4408461;28;656672;-69
2022/09/01 08:17:21;;;;;;;1.13;0.63;;;20.70;93.20;;;;;;4387008;28;656517;-69
2022/09/01 08:20:09;;;;;;;1.47;0.60;;;20.40;91.50;;;;;;4411151;28;657706;-70
2022/09/01 08:22:56;;;;;;;0.50;0.50;;;20.40;91.70;;;;;;4389463;28;657306;-71
2022/09/01 08:25:43;;;;;;;1.63;0.70;;;20.20;91.20;;;;;;4407512;28;656869;-70
2022/09/01 08:28:32;;;;;;;1.60;0.60;;;20.30;91.90;;;;;;4387292;28;656790;-70
2022/09/01 08:31:19;;;;;;;1.20;0.60;;;20.60;88.30;;;;;;4404649;28;656784;-68
2022/09/01 08:34:07;;;;;;;1.07;0.63;;;21.00;90.00;;;;;;4384033;28;657520;-70
2022/09/01 08:36:54;;;;;;;1.50;0.60;;;20.90;83.40;;;;;;4407298;28;658064;-70
2022/09/01 08:39:41;;;;;;;1.40;0.67;;;20.90;84.70;;;;;;4389086;28;656732;-71
2022/09/01 08:42:44;;;;;;;0.43;0.40;;;20.90;83.70;;;;;;4407572;28;657708;-69
2022/09/01 08:45:36;;;;;;;1.63;0.63;;;21.20;81.40;;;;;;4363243;28;657918;-70
2022/09/01 08:48:25;;;;;;;0.60;0.40;;;21.20;78.80;;;;;;4382226;28;657375;-70
2022/09/01 08:51:15;;;;;;;1.70;0.53;;;21.20;75.90;;;;;;4385286;28;658214;-71
2022/09/01 08:54:06;;;;;;;2.30;1.27;;;21.50;77.20;;;;;;4385376;28;657563;-69
2022/09/01 08:56:54;;;;;;;1.90;0.53;;;21.70;72.50;;;;;;4388766;28;657609;-70
2022/09/01 08:59:41;;;;;;;2.83;0.50;;;21.60;73.50;;;;;;4387977;28;656409;-70
2022/09/01 09:02:36;;;;;;;1.65;0.60;;;21.40;73.90;;;;;;4410135;28;657049;-70
2022/09/01 09:05:35;;;;;;;2.50;0.60;;;21.40;75.00;;;;;;4394335;28;656508;-70
2022/09/01 09:08:56;;;;;;;1.20;0.63;;;20.80;72.80;;;;;;4386022;28;656709;-71
2022/09/01 09:11:57;;;;;;;1.70;0.60;;;20.70;70.80;;;;;;4383452;28;657323;-71
2022/09/01 09:14:51;;;;;;;0.90;0.40;;;20.80;71.90;;;;;;4397806;28;656386;-68
2022/09/01 09:17:41;;;;;;;1.50;0.60;;;21.50;72.50;;;;;;4386845;28;657216;-70
2022/09/01 09:20:29;;;;;;;1.60;0.52;;;22.10;67.20;;;;;;4381341;28;657275;-71
2022/09/01 09:23:21;;;;;;;3.30;0.60;;;22.00;65.10;;;;;;4384483;28;656416;-70
2022/09/01 09:26:08;;;;;;;1.10;0.70;;;21.70;67.00;;;;;;4382591;28;657488;-70
2022/09/01 09:28:55;;;;;;;0.80;0.50;;;21.70;68.70;;;;;;4388737;28;658446;-71
2022/09/01 09:31:47;;;;;;;0.47;0.47;;;22.10;71.50;;;;;;4405703;28;656979;-70
2022/09/01 09:34:38;;;;;;;0.63;0.50;;;22.40;68.80;;;;;;4384566;28;656211;-68
2022/09/01 09:37:26;;;;;;;1.63;0.70;;;22.50;67.40;;;;;;4373576;28;656749;-68
2022/09/01 09:40:15;;;;;;;1.13;0.50;;;22.20;68.90;;;;;;4411595;28;656979;-70
2022/09/01 09:43:04;;;;;;;0.87;0.50;;;22.30;73.00;;;;;;4392509;28;658244;-70
2022/09/01 09:45:52;;;;;;;4.67;0.60;;;22.50;63.00;;;;;;4392134;28;656983;-70
2022/09/01 09:48:40;;;;;;;3.23;0.50;;;22.80;66.90;;;;;;4406767;28;657019;-68
2022/09/01 09:51:29;;;;;;;2.10;0.60;;;22.50;62.20;;;;;;4413985;28;656395;-69
2022/09/01 09:54:20;;;;;;;0.70;0.60;;;22.00;63.00;;;;;;4386659;28;656708;-69
2022/09/01 09:57:12;;;;;;;1.10;0.70;;;21.60;62.60;;;;;;4392969;28;656903;-69
2022/09/01 10:00:01;;;;;;;2.07;0.70;;;21.70;62.20;;;;;;4392765;28;656096;-69
2022/09/01 10:02:52;;;;;;;1.50;0.80;;;22.10;64.60;;;;;;4388378;28;658075;-70
2022/09/01 10:05:41;;;;;;;1.30;0.60;;;22.50;63.10;;;;;;4385167;28;656510;-69
2022/09/01 10:08:43;;;;;;;2.10;0.80;;;23.40;63.10;;;;;;4382330;28;657839;-70
2022/09/01 10:11:33;;;;;;;1.37;0.67;;;23.90;65.10;;;;;;4366034;28;656531;-69
2022/09/01 10:14:29;;;;;;;2.97;0.77;;;23.20;59.90;;;;;;4390973;28;656696;-68
2022/09/01 10:17:17;;;;;;;0.90;0.80;;;21.90;62.50;;;;;;4361165;28;656541;-69
2022/09/01 10:20:06;;;;;;;0.50;0.50;;;21.50;64.90;;;;;;4414635;28;656104;-69
2022/09/01 10:22:53;;;;;;;0.60;0.60;;;22.00;63.30;;;;;;4387452;28;657712;-69
2022/09/01 10:25:42;;;;;;;1.13;0.60;;;22.30;63.50;;;;;;4390523;28;656708;-68
2022/09/01 10:28:30;;;;;;;1.47;0.60;;;22.40;60.50;;;;;;4408097;28;656451;-68
2022/09/01 10:31:18;;;;;;;3.17;0.70;;;22.60;56.80;;;;;;4385116;28;658253;-69
2022/09/01 10:34:05;;;;;;;0.77;0.57;;;22.70;59.30;;;;;;4402680;28;657089;-68
2022/09/01 10:36:53;;;;;;;1.10;0.67;;;22.50;57.60;;;;;;4413835;28;658709;-69
2022/09/01 10:40:11;;;;;;;2.50;0.60;;;22.90;59.60;;;;;;4394886;28;656466;-68
2022/09/01 10:43:01;;;;;;;1.33;0.57;;;23.50;62.90;;;;;;4390055;28;657160;-68
2022/09/01 10:45:48;;;;;;;1.10;0.63;;;23.90;57.20;;;;;;4380741;28;657296;-69
2022/09/01 10:48:37;;;;;;;1.73;0.80;;;24.30;57.70;;;;;;4393351;28;656435;-67
2022/09/01 10:51:44;;;;;;;1.27;0.77;;;24.60;60.10;;;;;;4405355;28;656190;-70
2022/09/01 10:54:56;;;;;;;1.07;0.80;;;24.30;57.40;;;;;;4361449;28;657096;-69
2022/09/01 10:57:48;;;;;;;2.83;0.67;;;22.80;58.30;;;;;;4386765;28;657083;-69
2022/09/01 11:00:49;;;;;;;1.53;0.63;;;21.90;60.60;;;;;;4375274;28;656483;-67
2022/09/01 11:03:54;;;;;;;1.23;0.80;;;21.40;61.50;;;;;;4388964;28;656260;-69
2022/09/01 11:07:01;;;;;;;1.63;0.60;;;21.00;62.50;;;;;;4362960;28;657093;-69
2022/09/01 11:10:06;;;;;;;2.10;0.70;;;21.10;65.40;;;;;;4386368;28;657153;-69
2022/09/01 11:13:13;;;;;;;1.73;0.70;;;22.10;67.30;;;;;;4382246;28;656635;-69
2022/09/01 11:16:40;;;;;;;1.53;0.57;;;22.90;61.00;;;;;;4368083;28;656538;-69
2022/09/01 11:19:37;;;;;;;1.00;0.50;;;23.70;58.40;;;;;;4377826;28;657486;-69
2022/09/01 11:22:32;;;;;;;1.20;0.67;;;23.60;56.40;;;;;;4387304;28;656608;-69
2022/09/01 11:25:38;;;;;;;2.67;0.50;;;23.70;57.20;;;;;;4381191;28;656698;-69
2022/09/01 11:28:46;;;;;;;1.47;0.53;;;24.00;54.30;;;;;;4363912;28;656463;-67
2022/09/01 11:31:38;;;;;;;3.30;0.43;;;23.70;55.20;;;;;;4389267;28;657396;-69
2022/09/01 11:34:25;;;;;;;2.63;0.50;;;23.70;52.00;;;;;;4359214;28;656259;-69
2022/09/01 11:37:15;;;;;;;4.40;0.80;;;24.10;56.10;;;;;;4411930;28;658033;-69
2022/09/01 11:40:06;;;;;;;0.80;0.50;;;24.20;53.00;;;;;;4388845;28;657676;-69
2022/09/01 11:42:53;;;;;;;2.70;0.67;;;24.10;54.50;;;;;;4375593;28;657211;-69
2022/09/01 11:45:43;;;;;;;1.30;0.50;;;23.00;54.00;;;;;;4394106;28;656516;-66
2022/09/01 11:48:30;;;;;;;1.53;0.40;;;21.60;55.00;;;;;;4386572;28;656963;-69
2022/09/01 11:51:18;;;;;;;2.60;0.70;;;20.80;56.60;;;;;;4403700;28;656984;-68
2022/09/01 11:54:07;;;;;;;1.33;0.70;;;20.30;60.20;;;;;;4401389;28;656592;-67
2022/09/01 11:56:54;;;;;;;1.60;0.60;;;20.40;60.50;;;;;;4402193;28;656256;-69
2022/09/01 11:59:41;;;;;;;0.97;0.60;;;21.20;59.40;;;;;;4388060;28;656619;-68
2022/09/01 12:02:30;;;;;;;2.23;0.60;;;22.10;57.00;;;;;;4409543;28;657241;-69
2022/09/01 12:05:26;;;;;;;1.93;0.70;;;22.90;57.00;;;;;;4392267;28;656948;-69
2022/09/01 12:08:17;;;;;;;1.53;0.53;;;23.00;55.40;;;;;;4390130;28;656716;-69
2022/09/01 12:11:06;;;;;;;0.67;0.60;;;23.30;55.30;;;;;;4385139;28;659288;-66
2022/09/01 12:13:58;;;;;;;0.40;0.40;;;23.80;55.30;;;;;;4383773;28;658706;-66
2022/09/01 12:16:45;;;;;;;0.40;0.40;;;24.00;51.90;;;;;;4366811;28;657134;-66
2022/09/01 12:19:33;;;;;;;1.07;0.57;;;23.00;52.20;;;;;;4410424;28;656857;-65
2022/09/01 12:22:21;;;;;;;0.93;0.40;;;22.40;53.10;;;;;;4388770;28;656505;-66
2022/09/01 12:25:15;;;;;;;2.37;0.50;;;21.90;57.10;;;;;;4407495;28;657536;-66
2022/09/01 12:28:04;;;;;;;0.77;0.50;;;22.60;57.60;;;;;;4362670;28;657165;-66
2022/09/01 12:30:52;;;;;;;1.27;0.47;;;23.40;55.80;;;;;;4385799;28;656482;-65
2022/09/01 12:33:40;;;;;;;1.00;0.50;;;23.50;53.90;;;;;;4407795;28;656870;-66
2022/09/01 12:36:28;;;;;;;1.43;0.50;;;23.60;50.40;;;;;;4389614;28;656650;-65
2022/09/01 12:39:22;;;;;;;0.50;0.30;;;23.00;50.80;;;;;;4389134;28;656609;-66
2022/09/01 12:42:12;;;;;;;0.50;0.30;;;22.80;51.50;;;;;;4384456;28;657154;-66
2022/09/01 12:45:01;;;;;;;0.77;0.30;;;23.20;49.40;;;;;;4385793;28;657434;-66
2022/09/01 12:47:49;;;;;;;4.20;0.40;;;22.30;50.80;;;;;;4384400;28;657323;-65
2022/09/01 12:50:46;;;;;;;2.27;0.40;;;21.70;52.60;;;;;;4384821;28;657002;-65
2022/09/01 12:53:34;;;;;;;2.40;0.40;;;21.90;50.60;;;;;;4379786;28;657055;-65
2022/09/01 12:56:24;;;;;;;1.53;0.50;;;21.90;55.90;;;;;;4388903;28;656808;-66
2022/09/01 12:59:12;;;;;;;0.70;0.40;;;21.90;54.70;;;;;;4384193;28;656867;-66
2022/09/01 13:02:29;;;;;;;2.17;0.60;;;21.10;54.90;;;;;;4405566;28;656471;-66
2022/09/01 13:05:24;;;;;;;2.57;0.50;;;20.80;56.70;;;;;;4361944;28;657162;-65
2022/09/01 13:08:12;;;;;;;1.93;0.50;;;20.50;57.90;;;;;;4389195;28;657697;-65
2022/09/01 13:11:02;;;;;;;0.50;0.40;;;20.20;58.50;;;;;;4402697;28;656638;-65
2022/09/01 13:13:49;;;;;;;3.53;0.50;;;20.00;58.00;;;;;;4386539;28;657235;-65
2022/09/01 13:16:37;;;;;;;2.67;0.40;;;20.00;58.10;;;;;;4393427;28;657650;-65
2022/09/01 13:19:25;;;;;;;0.80;0.40;;;19.70;58.40;;;;;;4412371;28;656988;-65
2022/09/01 13:22:12;;;;;;;1.65;0.50;;;19.40;59.20;;;;;;4391917;28;657001;-65
2022/09/01 13:24:59;;;;;;;6.33;0.50;;;19.40;57.70;;;;;;4412066;28;656229;-65
2022/09/01 13:27:47;;;;;;;1.83;0.50;;;20.50;64.20;;;;;;4385681;28;658038;-65
2022/09/01 13:30:34;;;;;;;0.57;0.50;;;21.40;56.10;;;;;;4408219;28;656390;-65
2022/09/01 13:33:21;;;;;;;5.50;0.60;;;22.00;53.60;;;;;;4392475;28;656732;-65
2022/09/01 13:36:10;;;;;;;0.50;0.40;;;22.50;52.80;;;;;;4409957;28;657521;-65
2022/09/01 13:38:57;;;;;;;2.20;0.30;;;22.70;52.40;;;;;;4388043;28;657654;-65
2022/09/01 13:41:44;;;;;;;0.67;0.30;;;23.20;48.50;;;;;;4408724;28;657274;-66
2022/09/01 13:44:31;;;;;;;0.40;0.30;;;23.40;49.30;;;;;;4386325;28;656781;-66
2022/09/01 13:47:18;;;;;;;2.13;0.50;;;23.80;51.30;;;;;;4410824;28;657658;-66
2022/09/01 13:50:06;;;;;;;0.32;0.30;;;24.00;49.80;;;;;;4390844;28;656648;-65
2022/09/01 13:52:56;;;;;;;1.77;0.50;;;24.40;50.50;;;;;;4408416;28;657883;-67
2022/09/01 13:55:43;;;;;;;0.93;0.50;;;24.60;49.70;;;;;;4389601;28;656658;-66
2022/09/01 13:58:30;;;;;;;0.67;0.50;;;23.80;47.50;;;;;;4394997;28;656302;-66
2022/09/01 14:01:17;;;;;;;2.93;0.40;;;23.00;49.30;;;;;;4414512;28;657711;-66
2022/09/01 14:04:05;;;;;;;6.63;0.53;;;22.30;48.80;;;;;;4404802;28;656668;-65
2022/09/01 14:06:52;;;;;;;2.33;0.30;;;22.60;50.70;;;;;;4414819;28;657743;-65
2022/09/01 14:09:41;;;;;;;0.57;0.40;;;22.60;50.80;;;;;;4411830;28;657152;-66
2022/09/01 14:12:29;;;;;;;1.77;0.40;;;23.50;51.50;;;;;;4383072;28;657483;-65
2022/09/01 14:15:16;;;;;;;1.17;0.30;;;23.80;49.60;;;;;;4390710;28;656511;-65
2022/09/01 14:18:04;;;;;;;0.70;0.40;;;23.10;44.60;;;;;;4411014;28;657594;-66
2022/09/01 14:20:51;;;;;;;1.60;0.40;;;23.80;48.40;;;;;;4389620;28;656672;-65
2022/09/01 14:23:38;;;;;;;0.73;0.50;;;24.10;46.70;;;;;;4410838;28;656496;-65
2022/09/01 14:26:27;;;;;;;1.63;0.37;;;24.40;45.70;;;;;;4392917;28;656595;-65
2022/09/01 14:29:14;;;;;;;0.47;0.40;;;24.50;45.60;;;;;;4407409;28;655654;-65
2022/09/01 14:32:01;;;;;;;0.37;0.30;;;24.20;45.50;;;;;;4390994;28;656744;-65
2022/09/01 14:34:48;;;;;;;0.30;0.30;;;24.20;45.50;;;;;;4408436;28;657603;-65